createdAt,value
2023-01-09T00:04:39.711Z,2.61
2023-01-09T00:09:41.952Z,2.70
2023-01-09T00:14:43.852Z,2.89
2023-01-09T00:19:45.808Z,2.99
2023-01-09T00:24:47.942Z,3.09
2023-01-09T00:29:49.873Z,3.22
2023-01-09T00:34:51.855Z,3.31
2023-01-09T00:39:53.731Z,3.43
2023-01-09T00:45:03.960Z,3.61
2023-01-09T00:50:13.095Z,3.55
2023-01-09T00:55:15.964Z,3.71
2023-01-09T01:00:18.916Z,3.79
2023-01-09T01:05:39.335Z,3.82
2023-01-09T01:10:42.231Z,3.86
2023-01-09T01:15:45.594Z,3.97
2023-01-09T01:20:47.473Z,4.43
2023-01-09T01:25:49.327Z,5.35
2023-01-09T01:30:51.284Z,5.49
2023-01-09T01:36:07.065Z,5.72
2023-01-09T01:41:08.948Z,5.77
2023-01-09T01:46:10.920Z,5.62
2023-01-09T01:51:15.703Z,5.43
2023-01-09T01:56:22.577Z,5.31
2023-01-09T02:01:25.903Z,5.17
2023-01-09T02:06:29.914Z,5.11
2023-01-09T02:11:32.554Z,4.95
2023-01-09T02:16:48.053Z,4.85
2023-01-09T02:21:55.959Z,4.78
2023-01-09T02:27:13.161Z,4.71
2023-01-09T02:32:17.999Z,4.72
2023-01-09T02:37:31.921Z,4.64
2023-01-09T02:42:35.836Z,4.61
2023-01-09T02:47:46.346Z,4.59
2023-01-09T02:53:03.315Z,4.62
2023-01-09T02:58:43.721Z,4.55
2023-01-09T03:04:01.111Z,4.54
2023-01-09T03:09:15.309Z,4.57
2023-01-09T03:14:21.634Z,4.54
2023-01-09T03:19:27.215Z,4.41
2023-01-09T03:24:29.057Z,4.32
2023-01-09T03:29:31.122Z,4.30
2023-01-09T03:34:32.936Z,4.27
2023-01-09T03:39:34.779Z,4.27
2023-01-09T03:44:36.598Z,4.40
2023-01-09T03:49:38.491Z,4.49
2023-01-09T03:54:40.553Z,4.46
2023-01-09T03:59:42.382Z,4.38
2023-01-09T04:04:44.259Z,4.36
2023-01-09T04:09:46.042Z,4.32
2023-01-09T04:14:47.879Z,4.31
2023-01-09T04:19:50.400Z,4.39
2023-01-09T04:24:52.175Z,4.38
2023-01-09T04:29:54.216Z,4.18
2023-01-09T04:34:56.401Z,3.98
2023-01-09T04:39:58.339Z,3.84
2023-01-09T04:45:00.217Z,3.86
2023-01-09T04:50:02.072Z,4.05
2023-01-09T04:55:05.369Z,4.31
2023-01-09T05:00:09.992Z,4.23
2023-01-09T05:05:12.280Z,4.08
2023-01-09T05:10:14.126Z,3.87
2023-01-09T05:15:16.122Z,3.85
2023-01-09T05:20:17.943Z,4.00
2023-01-09T05:25:19.739Z,4.01
2023-01-09T05:30:21.608Z,4.08
2023-01-09T05:35:23.574Z,4.17
2023-01-09T05:40:32.111Z,4.27
2023-01-09T05:45:34.815Z,4.67
2023-01-09T05:50:36.672Z,4.80
2023-01-09T05:55:38.545Z,4.85
2023-01-09T06:00:40.390Z,5.02
2023-01-09T06:05:42.190Z,5.31
2023-01-09T06:10:44.015Z,5.37
2023-01-09T06:15:48.020Z,5.47
2023-01-09T06:20:50.294Z,5.57
2023-01-09T06:25:52.104Z,5.63
2023-01-09T06:30:53.947Z,5.79
2023-01-09T06:35:55.819Z,5.89
2023-01-09T06:40:57.671Z,5.93
2023-01-09T06:45:59.577Z,5.98
2023-01-09T06:51:01.456Z,6.06
2023-01-09T06:56:03.468Z,6.05
2023-01-09T07:01:05.420Z,5.93
2023-01-09T07:06:07.650Z,5.97
2023-01-09T07:11:09.501Z,5.88
2023-01-09T07:16:11.365Z,6.04
2023-01-09T07:21:13.220Z,6.11
2023-01-09T07:26:14.988Z,6.24
2023-01-09T07:31:16.848Z,6.32
2023-01-09T07:36:18.802Z,6.38
2023-01-09T07:41:20.708Z,6.52
2023-01-09T07:46:22.645Z,6.59
2023-01-09T07:51:24.704Z,6.63
2023-01-09T07:56:26.642Z,6.66
2023-01-09T08:01:28.575Z,6.66
2023-01-09T08:06:31.606Z,6.66
2023-01-09T08:11:33.463Z,6.66
2023-01-09T08:16:35.319Z,6.67
2023-01-09T08:21:37.119Z,6.68
2023-01-09T08:26:38.994Z,6.66
2023-01-09T08:31:40.901Z,6.67
2023-01-09T08:36:42.784Z,6.70
2023-01-09T08:42:03.034Z,6.82
2023-01-09T08:47:07.689Z,6.87
2023-01-09T08:52:09.748Z,6.83
2023-01-09T08:57:11.536Z,6.85
2023-01-09T09:02:13.440Z,6.88
2023-01-09T09:07:15.280Z,6.92
2023-01-09T09:12:17.082Z,7.05
2023-01-09T09:17:18.883Z,7.15
2023-01-09T09:22:20.729Z,7.22
2023-01-09T09:27:22.559Z,7.23
2023-01-09T09:32:25.664Z,7.33
2023-01-09T09:37:27.504Z,7.16
2023-01-09T09:43:09.624Z,6.89
2023-01-09T09:48:37.774Z,6.79
2023-01-09T09:53:49.503Z,6.77
2023-01-09T09:58:56.690Z,6.85
2023-01-09T10:04:01.725Z,6.83
2023-01-09T10:09:36.399Z,6.58
2023-01-09T10:14:39.515Z,6.47
2023-01-09T10:20:08.669Z,6.51
2023-01-09T10:25:16.536Z,6.49
2023-01-09T10:30:27.992Z,6.55
2023-01-09T10:36:00.954Z,6.73
2023-01-09T10:41:27.272Z,6.92
2023-01-09T10:46:37.557Z,6.78
2023-01-09T10:52:15.602Z,6.69
2023-01-09T10:57:42.085Z,6.64
2023-01-09T11:02:44.004Z,6.67
2023-01-09T11:07:49.658Z,6.66
2023-01-09T11:12:51.534Z,6.57
2023-01-09T11:17:53.358Z,6.69
2023-01-09T11:22:58.950Z,6.96
2023-01-09T11:28:06.801Z,7.23
2023-01-09T11:33:18.807Z,7.62
2023-01-09T11:38:20.624Z,7.52
2023-01-09T11:43:38.851Z,7.73
2023-01-09T11:48:41.806Z,9.07
2023-01-09T11:53:56.139Z,9.83
2023-01-09T11:59:00.088Z,7.94
2023-01-09T12:04:28.811Z,7.20
2023-01-09T12:09:48.835Z,6.91
2023-01-09T12:15:00.149Z,6.79
2023-01-09T12:20:19.435Z,6.83
2023-01-09T12:25:30.071Z,7.10
2023-01-09T12:30:43.364Z,7.08
2023-01-09T12:36:23.109Z,6.90
2023-01-09T12:42:06.252Z,6.86
2023-01-09T12:47:46.043Z,7.03
2023-01-09T12:53:11.306Z,7.48
2023-01-09T12:58:41.452Z,7.28
2023-01-09T13:04:03.464Z,6.85
2023-01-09T13:09:26.476Z,6.98
2023-01-09T13:14:39.811Z,7.57
2023-01-09T13:19:43.819Z,7.63
2023-01-09T13:24:55.948Z,7.19
2023-01-09T13:30:09.726Z,7.02
2023-01-09T13:35:15.718Z,6.85
2023-01-09T13:40:34.808Z,6.79
2023-01-09T13:45:39.412Z,6.84
2023-01-09T13:50:42.402Z,6.69
2023-01-09T13:55:59.622Z,6.57
2023-01-09T14:01:04.718Z,6.58
2023-01-09T14:06:12.570Z,6.53
2023-01-09T14:11:20.052Z,6.53
2023-01-09T14:16:24.979Z,6.50
2023-01-09T14:21:27.235Z,6.43
2023-01-09T14:26:49.841Z,6.40
2023-01-09T14:31:51.569Z,6.38
2023-01-09T14:36:58.429Z,6.40
2023-01-09T14:42:06.787Z,6.35
2023-01-09T14:47:39.255Z,6.21
2023-01-09T14:52:49.236Z,6.13
2023-01-09T14:57:54.769Z,6.05
2023-01-09T15:02:56.447Z,6.00
2023-01-09T15:08:02.159Z,5.86
2023-01-09T15:13:07.887Z,5.74
2023-01-09T15:18:10.920Z,5.67
2023-01-09T15:23:29.293Z,5.55
2023-01-09T15:28:32.882Z,5.49
2023-01-09T15:33:35.463Z,5.46
2023-01-09T15:38:40.077Z,5.40
2023-01-09T15:43:44.152Z,5.42
2023-01-09T15:48:45.936Z,5.37
2023-01-09T15:53:51.604Z,5.31
2023-01-09T15:58:54.804Z,5.31
2023-01-09T16:04:04.981Z,5.25
2023-01-09T16:09:16.705Z,5.14
2023-01-09T16:14:38.588Z,5.05
2023-01-09T16:19:52.350Z,5.03
2023-01-09T16:24:56.053Z,4.96
2023-01-09T16:30:05.767Z,4.90
2023-01-09T16:35:16.781Z,4.82
2023-01-09T16:40:18.384Z,4.73
2023-01-09T16:45:21.098Z,4.61
2023-01-09T16:50:23.942Z,4.48
2023-01-09T16:55:25.615Z,4.42
2023-01-09T17:00:27.183Z,4.30
2023-01-09T17:05:28.837Z,4.31
2023-01-09T17:10:33.622Z,4.33
2023-01-09T17:15:35.952Z,4.29
2023-01-09T17:20:37.603Z,4.30
2023-01-09T17:25:58.952Z,4.30
2023-01-09T17:31:10.025Z,4.08
2023-01-09T17:36:28.225Z,3.97
2023-01-09T17:41:31.191Z,3.71
2023-01-09T17:46:35.606Z,3.99
2023-01-09T17:51:37.225Z,4.23
2023-01-09T17:56:43.138Z,4.55
2023-01-09T18:01:45.567Z,4.69
2023-01-09T18:06:49.238Z,4.84
2023-01-09T18:11:50.896Z,4.88
2023-01-09T18:16:52.536Z,4.83
2023-01-09T18:21:54.142Z,4.59
2023-01-09T18:26:55.757Z,4.41
2023-01-09T18:31:57.964Z,4.25
2023-01-09T18:36:59.671Z,4.13
2023-01-09T18:42:01.304Z,4.15
2023-01-09T18:47:03.074Z,4.10
2023-01-09T18:52:07.387Z,3.95
2023-01-09T18:57:10.240Z,3.84
2023-01-09T19:02:25.967Z,3.38
2023-01-09T19:07:27.623Z,2.94
2023-01-09T19:12:29.259Z,2.80
2023-01-09T19:17:31.347Z,2.89
2023-01-09T19:22:33.149Z,3.04
2023-01-09T19:27:34.711Z,3.38
2023-01-09T19:32:38.382Z,3.57
2023-01-09T19:37:40.139Z,3.74
2023-01-09T19:42:41.953Z,3.89
2023-01-09T19:47:44.063Z,3.97
2023-01-09T19:52:46.121Z,4.08
2023-01-09T19:57:47.929Z,4.27
2023-01-09T20:02:49.793Z,4.43
2023-01-09T20:07:55.296Z,4.46
2023-01-09T20:12:57.262Z,4.57
2023-01-09T20:17:59.839Z,4.67
2023-01-09T20:23:01.658Z,4.75
2023-01-09T20:28:03.846Z,4.83
2023-01-09T20:33:05.633Z,4.86
2023-01-09T20:38:08.055Z,4.89
2023-01-09T20:43:12.494Z,4.89
2023-01-09T20:48:14.671Z,4.90
2023-01-09T20:53:16.496Z,4.90
2023-01-09T20:58:18.318Z,4.92
2023-01-09T21:03:20.208Z,4.94
2023-01-09T21:08:21.974Z,4.96
2023-01-09T21:13:25.160Z,4.97
2023-01-09T21:18:26.987Z,4.88
2023-01-09T21:23:28.821Z,4.84
2023-01-09T21:28:31.857Z,4.82
2023-01-09T21:33:33.639Z,4.82
2023-01-09T21:38:35.610Z,4.70
2023-01-09T21:43:55.819Z,4.57
2023-01-09T21:48:57.878Z,4.62
2023-01-09T21:53:59.659Z,4.65
2023-01-09T21:59:01.625Z,4.57
2023-01-09T22:04:03.739Z,4.51
2023-01-09T22:09:05.666Z,4.43
2023-01-09T22:14:07.758Z,4.37
2023-01-09T22:19:10.397Z,4.43
2023-01-09T22:24:18.363Z,4.39
2023-01-09T22:29:21.888Z,4.24
2023-01-09T22:34:23.718Z,4.27
2023-01-09T22:39:25.646Z,4.36
2023-01-09T22:44:27.515Z,4.32
2023-01-09T22:49:33.540Z,4.30
2023-01-09T22:54:43.022Z,4.39
2023-01-09T22:59:44.844Z,4.34
2023-01-09T23:04:46.653Z,4.41
2023-01-09T23:09:48.499Z,4.44
2023-01-09T23:14:50.322Z,4.43
2023-01-09T23:19:52.147Z,4.42
2023-01-09T23:24:53.983Z,4.33
2023-01-09T23:29:55.749Z,4.25
2023-01-09T23:34:57.578Z,4.21
2023-01-09T23:39:59.427Z,4.17
2023-01-09T23:45:01.356Z,4.06
2023-01-09T23:50:04.008Z,3.95
2023-01-09T23:55:06.468Z,3.87
